sensor_id;sensor_type;location;lat;lon;timestamp;temperature;humidity
21214;DHT22;10764;50.850;2.904;2022-12-01T00:01:15;17.60;53.20
21214;DHT22;10764;50.850;2.904;2022-12-01T00:03:42;19.10;53.90
21214;DHT22;10764;50.850;2.904;2022-12-01T00:06:18;21.30;55.10
21214;DHT22;10764;50.850;2.904;2022-12-01T00:08:46;19.00;53.70
21214;DHT22;10764;50.850;2.904;2022-12-01T00:11:33;20.10;54.00
21214;DHT22;10764;50.850;2.904;2022-12-01T00:14:00;19.20;53.70
21214;DHT22;10764;50.850;2.904;2022-12-01T00:16:27;18.50;54.10
21214;DHT22;10764;50.850;2.904;2022-12-01T00:18:55;19.00;54.50
21214;DHT22;10764;50.850;2.904;2022-12-01T00:21:24;18.00;53.50
21214;DHT22;10764;50.850;2.904;2022-12-01T00:23:53;19.30;53.80
21214;DHT22;10764;50.850;2.904;2022-12-01T00:26:21;17.60;53.30
21214;DHT22;10764;50.850;2.904;2022-12-01T00:28:53;19.10;53.80
21214;DHT22;10764;50.850;2.904;2022-12-01T00:31:20;19.00;53.50
21214;DHT22;10764;50.850;2.904;2022-12-01T00:33:48;17.50;53.50
21214;DHT22;10764;50.850;2.904;2022-12-01T00:36:16;17.50;53.50
21214;DHT22;10764;50.850;2.904;2022-12-01T00:38:43;17.50;53.00
21214;DHT22;10764;50.850;2.904;2022-12-01T00:41:10;17.60;53.30
21214;DHT22;10764;50.850;2.904;2022-12-01T00:43:38;19.20;54.50
21214;DHT22;10764;50.850;2.904;2022-12-01T00:46:05;20.20;54.60
21214;DHT22;10764;50.850;2.904;2022-12-01T00:48:33;19.60;54.30
21214;DHT22;10764;50.850;2.904;2022-12-01T00:50:59;17.50;53.40
21214;DHT22;10764;50.850;2.904;2022-12-01T00:53:27;19.50;54.50
21214;DHT22;10764;50.850;2.904;2022-12-01T00:55:54;18.00;53.10
21214;DHT22;10764;50.850;2.904;2022-12-01T00:58:22;17.50;53.10
21214;DHT22;10764;50.850;2.904;2022-12-01T01:00:56;17.80;53.10
21214;DHT22;10764;50.850;2.904;2022-12-01T01:03:25;17.60;52.80
21214;DHT22;10764;50.850;2.904;2022-12-01T01:05:52;19.80;53.70
21214;DHT22;10764;50.850;2.904;2022-12-01T01:08:21;19.60;54.20
21214;DHT22;10764;50.850;2.904;2022-12-01T01:10:49;20.00;54.90
21214;DHT22;10764;50.850;2.904;2022-12-01T01:13:17;18.40;53.70
21214;DHT22;10764;50.850;2.904;2022-12-01T01:15:45;17.60;52.90
21214;DHT22;10764;50.850;2.904;2022-12-01T01:18:21;17.60;53.10
21214;DHT22;10764;50.850;2.904;2022-12-01T01:20:55;18.80;53.60
21214;DHT22;10764;50.850;2.904;2022-12-01T01:23:22;18.60;53.20
21214;DHT22;10764;50.850;2.904;2022-12-01T01:25:49;18.30;54.10
21214;DHT22;10764;50.850;2.904;2022-12-01T01:28:16;17.60;53.20
21214;DHT22;10764;50.850;2.904;2022-12-01T01:30:44;17.50;52.90
21214;DHT22;10764;50.850;2.904;2022-12-01T01:33:12;19.70;53.70
21214;DHT22;10764;50.850;2.904;2022-12-01T01:35:38;19.20;54.20
21214;DHT22;10764;50.850;2.904;2022-12-01T01:38:06;17.50;53.50
21214;DHT22;10764;50.850;2.904;2022-12-01T01:40:33;18.90;54.00
21214;DHT22;10764;50.850;2.904;2022-12-01T01:43:00;18.00;53.20
21214;DHT22;10764;50.850;2.904;2022-12-01T01:45:28;17.50;53.20
21214;DHT22;10764;50.850;2.904;2022-12-01T01:47:56;17.50;53.50
21214;DHT22;10764;50.850;2.904;2022-12-01T01:50:27;17.50;52.70
21214;DHT22;10764;50.850;2.904;2022-12-01T01:53:01;17.50;53.60
21214;DHT22;10764;50.850;2.904;2022-12-01T01:55:31;17.60;52.80
21214;DHT22;10764;50.850;2.904;2022-12-01T01:58:00;20.40;54.40
21214;DHT22;10764;50.850;2.904;2022-12-01T02:00:28;20.80;54.40
21214;DHT22;10764;50.850;2.904;2022-12-01T02:02:58;20.20;54.70
21214;DHT22;10764;50.850;2.904;2022-12-01T02:05:28;19.20;54.20
21214;DHT22;10764;50.850;2.904;2022-12-01T02:07:57;19.60;53.60
21214;DHT22;10764;50.850;2.904;2022-12-01T02:10:48;19.50;53.70
21214;DHT22;10764;50.850;2.904;2022-12-01T02:13:32;17.60;52.60
21214;DHT22;10764;50.850;2.904;2022-12-01T02:16:38;17.50;52.60
21214;DHT22;10764;50.850;2.904;2022-12-01T02:22:02;17.50;52.50
21214;DHT22;10764;50.850;2.904;2022-12-01T02:38:34;18.60;53.90
21214;DHT22;10764;50.850;2.904;2022-12-01T02:43:42;17.50;52.50
21214;DHT22;10764;50.850;2.904;2022-12-01T02:46:11;18.60;53.20
21214;DHT22;10764;50.850;2.904;2022-12-01T02:48:42;19.30;53.60
21214;DHT22;10764;50.850;2.904;2022-12-01T02:51:13;18.30;53.20
21214;DHT22;10764;50.850;2.904;2022-12-01T02:53:42;18.40;53.10
21214;DHT22;10764;50.850;2.904;2022-12-01T02:56:11;21.20;54.40
21214;DHT22;10764;50.850;2.904;2022-12-01T02:58:38;19.90;54.00
21214;DHT22;10764;50.850;2.904;2022-12-01T03:01:28;17.50;52.00
21214;DHT22;10764;50.850;2.904;2022-12-01T03:09:38;17.50;52.40
21214;DHT22;10764;50.850;2.904;2022-12-01T03:12:22;17.50;52.90
21214;DHT22;10764;50.850;2.904;2022-12-01T03:15:25;17.50;52.40
21214;DHT22;10764;50.850;2.904;2022-12-01T03:21:05;19.00;54.20
21214;DHT22;10764;50.850;2.904;2022-12-01T03:23:37;20.00;54.00
21214;DHT22;10764;50.850;2.904;2022-12-01T03:26:07;17.50;52.90
21214;DHT22;10764;50.850;2.904;2022-12-01T03:28:40;17.60;52.70
21214;DHT22;10764;50.850;2.904;2022-12-01T03:31:13;17.50;51.90
21214;DHT22;10764;50.850;2.904;2022-12-01T03:33:47;19.60;53.70
21214;DHT22;10764;50.850;2.904;2022-12-01T03:36:24;19.50;53.40
21214;DHT22;10764;50.850;2.904;2022-12-01T03:38:57;17.50;53.00
21214;DHT22;10764;50.850;2.904;2022-12-01T03:41:30;17.50;52.60
21214;DHT22;10764;50.850;2.904;2022-12-01T03:44:08;17.50;52.80
21214;DHT22;10764;50.850;2.904;2022-12-01T03:47:13;17.90;53.40
21214;DHT22;10764;50.850;2.904;2022-12-01T03:49:41;17.50;52.40
21214;DHT22;10764;50.850;2.904;2022-12-01T03:52:37;19.60;53.50
21214;DHT22;10764;50.850;2.904;2022-12-01T03:55:13;17.50;52.40
21214;DHT22;10764;50.850;2.904;2022-12-01T03:58:07;17.50;52.40
21214;DHT22;10764;50.850;2.904;2022-12-01T04:00:36;17.50;52.40
21214;DHT22;10764;50.850;2.904;2022-12-01T04:03:04;18.20;53.30
21214;DHT22;10764;50.850;2.904;2022-12-01T04:05:33;19.00;53.60
21214;DHT22;10764;50.850;2.904;2022-12-01T04:08:00;20.30;54.00
21214;DHT22;10764;50.850;2.904;2022-12-01T04:10:27;17.50;52.80
21214;DHT22;10764;50.850;2.904;2022-12-01T04:12:55;19.50;53.90
21214;DHT22;10764;50.850;2.904;2022-12-01T04:15:26;17.50;52.80
21214;DHT22;10764;50.850;2.904;2022-12-01T04:17:53;19.20;53.50
21214;DHT22;10764;50.850;2.904;2022-12-01T04:20:22;17.60;52.60
21214;DHT22;10764;50.850;2.904;2022-12-01T04:22:48;19.40;53.40
21214;DHT22;10764;50.850;2.904;2022-12-01T04:25:15;17.50;53.30
21214;DHT22;10764;50.850;2.904;2022-12-01T04:27:42;17.60;53.00
21214;DHT22;10764;50.850;2.904;2022-12-01T04:30:10;17.50;52.70
21214;DHT22;10764;50.850;2.904;2022-12-01T04:32:38;17.50;52.90
21214;DHT22;10764;50.850;2.904;2022-12-01T04:35:07;17.70;53.00
21214;DHT22;10764;50.850;2.904;2022-12-01T04:37:34;17.50;52.10
21214;DHT22;10764;50.850;2.904;2022-12-01T04:40:01;20.60;54.80
21214;DHT22;10764;50.850;2.904;2022-12-01T04:42:28;18.50;52.60
21214;DHT22;10764;50.850;2.904;2022-12-01T04:44:55;17.50;52.90
21214;DHT22;10764;50.850;2.904;2022-12-01T04:47:22;18.90;53.70
21214;DHT22;10764;50.850;2.904;2022-12-01T04:49:49;20.50;54.20
21214;DHT22;10764;50.850;2.904;2022-12-01T04:52:17;17.50;53.10
21214;DHT22;10764;50.850;2.904;2022-12-01T04:54:43;20.40;53.70
21214;DHT22;10764;50.850;2.904;2022-12-01T04:57:10;19.30;53.80
21214;DHT22;10764;50.850;2.904;2022-12-01T04:59:37;18.40;53.50
21214;DHT22;10764;50.850;2.904;2022-12-01T05:02:05;18.80;53.70
21214;DHT22;10764;50.850;2.904;2022-12-01T05:04:32;18.90;53.60
21214;DHT22;10764;50.850;2.904;2022-12-01T05:06:59;19.60;53.70
21214;DHT22;10764;50.850;2.904;2022-12-01T05:09:26;21.30;54.10
21214;DHT22;10764;50.850;2.904;2022-12-01T05:11:53;18.50;52.60
21214;DHT22;10764;50.850;2.904;2022-12-01T05:14:20;18.80;53.20
21214;DHT22;10764;50.850;2.904;2022-12-01T05:16:47;20.60;54.00
21214;DHT22;10764;50.850;2.904;2022-12-01T05:19:14;20.30;53.80
21214;DHT22;10764;50.850;2.904;2022-12-01T05:22:00;19.20;52.80
21214;DHT22;10764;50.850;2.904;2022-12-01T05:24:27;18.40;52.70
21214;DHT22;10764;50.850;2.904;2022-12-01T05:26:54;17.50;52.40
21214;DHT22;10764;50.850;2.904;2022-12-01T05:29:21;17.50;53.00
21214;DHT22;10764;50.850;2.904;2022-12-01T05:31:47;17.90;52.80
21214;DHT22;10764;50.850;2.904;2022-12-01T05:34:15;18.00;52.70
21214;DHT22;10764;50.850;2.904;2022-12-01T05:36:42;17.50;52.60
21214;DHT22;10764;50.850;2.904;2022-12-01T05:39:08;18.40;53.70
21214;DHT22;10764;50.850;2.904;2022-12-01T05:41:35;21.20;54.20
21214;DHT22;10764;50.850;2.904;2022-12-01T05:44:02;19.40;53.60
21214;DHT22;10764;50.850;2.904;2022-12-01T05:46:30;17.50;53.00
21214;DHT22;10764;50.850;2.904;2022-12-01T05:48:57;17.50;52.70
21214;DHT22;10764;50.850;2.904;2022-12-01T05:51:25;19.10;53.40
21214;DHT22;10764;50.850;2.904;2022-12-01T05:53:53;19.60;53.30
21214;DHT22;10764;50.850;2.904;2022-12-01T05:56:19;17.50;52.50
21214;DHT22;10764;50.850;2.904;2022-12-01T05:58:47;19.10;53.30
21214;DHT22;10764;50.850;2.904;2022-12-01T06:01:15;18.60;53.60
21214;DHT22;10764;50.850;2.904;2022-12-01T06:03:42;19.40;53.20
21214;DHT22;10764;50.850;2.904;2022-12-01T06:06:09;20.30;53.50
21214;DHT22;10764;50.850;2.904;2022-12-01T06:08:37;18.30;52.90
21214;DHT22;10764;50.850;2.904;2022-12-01T06:11:05;20.20;53.80
21214;DHT22;10764;50.850;2.904;2022-12-01T06:13:31;18.60;53.00
21214;DHT22;10764;50.850;2.904;2022-12-01T06:16:00;20.20;53.90
21214;DHT22;10764;50.850;2.904;2022-12-01T06:18:33;17.50;51.90
21214;DHT22;10764;50.850;2.904;2022-12-01T06:21:00;17.50;52.00
21214;DHT22;10764;50.850;2.904;2022-12-01T06:23:27;19.30;54.00
21214;DHT22;10764;50.850;2.904;2022-12-01T06:25:57;17.40;51.00
21214;DHT22;10764;50.850;2.904;2022-12-01T06:28:24;17.50;51.80
21214;DHT22;10764;50.850;2.904;2022-12-01T06:30:50;18.80;53.00
21214;DHT22;10764;50.850;2.904;2022-12-01T06:33:23;19.90;53.60
21214;DHT22;10764;50.850;2.904;2022-12-01T06:36:02;17.50;52.80
21214;DHT22;10764;50.850;2.904;2022-12-01T06:38:30;19.10;52.50
21214;DHT22;10764;50.850;2.904;2022-12-01T06:40:58;17.50;51.60
21214;DHT22;10764;50.850;2.904;2022-12-01T06:43:24;19.40;53.20
21214;DHT22;10764;50.850;2.904;2022-12-01T06:45:51;17.90;52.20
21214;DHT22;10764;50.850;2.904;2022-12-01T06:48:26;21.20;53.90
21214;DHT22;10764;50.850;2.904;2022-12-01T06:50:56;19.70;53.10
21214;DHT22;10764;50.850;2.904;2022-12-01T06:53:23;17.50;51.60
21214;DHT22;10764;50.850;2.904;2022-12-01T06:55:50;19.50;52.80
21214;DHT22;10764;50.850;2.904;2022-12-01T06:58:17;21.50;53.80
21214;DHT22;10764;50.850;2.904;2022-12-01T07:00:44;17.90;51.70
21214;DHT22;10764;50.850;2.904;2022-12-01T07:03:17;19.20;52.70
21214;DHT22;10764;50.850;2.904;2022-12-01T07:05:44;20.00;53.80
21214;DHT22;10764;50.850;2.904;2022-12-01T07:08:19;19.40;52.40
21214;DHT22;10764;50.850;2.904;2022-12-01T07:11:13;17.50;52.80
21214;DHT22;10764;50.850;2.904;2022-12-01T07:13:42;17.50;51.60
21214;DHT22;10764;50.850;2.904;2022-12-01T07:16:11;20.40;53.20
21214;DHT22;10764;50.850;2.904;2022-12-01T07:18:38;18.60;52.60
21214;DHT22;10764;50.850;2.904;2022-12-01T07:21:13;17.90;52.20
21214;DHT22;10764;50.850;2.904;2022-12-01T07:23:40;19.10;52.40
21214;DHT22;10764;50.850;2.904;2022-12-01T07:26:13;20.40;53.00
21214;DHT22;10764;50.850;2.904;2022-12-01T07:28:40;20.80;52.90
21214;DHT22;10764;50.850;2.904;2022-12-01T07:31:10;17.50;51.50
21214;DHT22;10764;50.850;2.904;2022-12-01T07:33:37;19.20;52.40
21214;DHT22;10764;50.850;2.904;2022-12-01T07:36:05;19.00;51.90
21214;DHT22;10764;50.850;2.904;2022-12-01T07:38:34;17.50;51.60
21214;DHT22;10764;50.850;2.904;2022-12-01T07:41:13;17.50;51.80
21214;DHT22;10764;50.850;2.904;2022-12-01T07:43:41;19.70;52.60
21214;DHT22;10764;50.850;2.904;2022-12-01T07:46:11;18.80;53.20
21214;DHT22;10764;50.850;2.904;2022-12-01T07:48:48;20.30;52.80
21214;DHT22;10764;50.850;2.904;2022-12-01T07:51:16;17.50;51.80
21214;DHT22;10764;50.850;2.904;2022-12-01T07:53:44;17.50;52.20
21214;DHT22;10764;50.850;2.904;2022-12-01T07:56:11;19.00;52.10
21214;DHT22;10764;50.850;2.904;2022-12-01T07:58:39;18.50;53.00
21214;DHT22;10764;50.850;2.904;2022-12-01T08:01:07;19.30;52.50
21214;DHT22;10764;50.850;2.904;2022-12-01T08:03:35;17.50;51.40
21214;DHT22;10764;50.850;2.904;2022-12-01T08:06:03;19.00;52.90
21214;DHT22;10764;50.850;2.904;2022-12-01T08:08:32;17.50;51.30
21214;DHT22;10764;50.850;2.904;2022-12-01T08:11:01;18.90;52.20
21214;DHT22;10764;50.850;2.904;2022-12-01T08:13:29;19.50;52.10
21214;DHT22;10764;50.850;2.904;2022-12-01T08:15:57;19.10;52.20
21214;DHT22;10764;50.850;2.904;2022-12-01T08:18:25;19.30;52.20
21214;DHT22;10764;50.850;2.904;2022-12-01T08:20:55;19.00;52.70
21214;DHT22;10764;50.850;2.904;2022-12-01T08:23:23;19.10;51.80
21214;DHT22;10764;50.850;2.904;2022-12-01T08:25:50;17.80;52.30
21214;DHT22;10764;50.850;2.904;2022-12-01T08:28:18;18.40;52.60
21214;DHT22;10764;50.850;2.904;2022-12-01T08:30:46;17.60;51.70
21214;DHT22;10764;50.850;2.904;2022-12-01T08:33:12;17.40;51.70
21214;DHT22;10764;50.850;2.904;2022-12-01T08:35:39;19.00;52.30
21214;DHT22;10764;50.850;2.904;2022-12-01T08:38:08;19.90;52.50
21214;DHT22;10764;50.850;2.904;2022-12-01T08:40:35;21.00;53.30
21214;DHT22;10764;50.850;2.904;2022-12-01T08:43:03;18.80;51.90
21214;DHT22;10764;50.850;2.904;2022-12-01T08:45:30;18.60;51.90
21214;DHT22;10764;50.850;2.904;2022-12-01T08:47:57;19.70;52.80
21214;DHT22;10764;50.850;2.904;2022-12-01T08:50:26;19.70;52.50
21214;DHT22;10764;50.850;2.904;2022-12-01T08:52:53;17.60;51.70
21214;DHT22;10764;50.850;2.904;2022-12-01T08:55:20;19.40;52.70
21214;DHT22;10764;50.850;2.904;2022-12-01T08:57:47;19.40;52.70
21214;DHT22;10764;50.850;2.904;2022-12-01T09:00:15;18.10;52.60
21214;DHT22;10764;50.850;2.904;2022-12-01T09:02:43;17.50;52.10
21214;DHT22;10764;50.850;2.904;2022-12-01T09:05:10;17.50;52.00
21214;DHT22;10764;50.850;2.904;2022-12-01T09:07:37;17.50;52.20
21214;DHT22;10764;50.850;2.904;2022-12-01T09:10:06;17.50;52.70
21214;DHT22;10764;50.850;2.904;2022-12-01T09:12:34;17.50;52.40
21214;DHT22;10764;50.850;2.904;2022-12-01T09:15:01;19.00;52.90
21214;DHT22;10764;50.850;2.904;2022-12-01T09:17:27;18.50;53.30
21214;DHT22;10764;50.850;2.904;2022-12-01T09:19:54;19.40;53.10
21214;DHT22;10764;50.850;2.904;2022-12-01T09:22:21;17.50;52.20
21214;DHT22;10764;50.850;2.904;2022-12-01T09:24:48;19.40;52.30
21214;DHT22;10764;50.850;2.904;2022-12-01T09:27:14;18.90;52.30
21214;DHT22;10764;50.850;2.904;2022-12-01T09:29:41;20.40;52.60
21214;DHT22;10764;50.850;2.904;2022-12-01T09:32:08;17.50;51.80
21214;DHT22;10764;50.850;2.904;2022-12-01T09:34:35;17.50;51.40
21214;DHT22;10764;50.850;2.904;2022-12-01T09:37:01;19.80;52.30
21214;DHT22;10764;50.850;2.904;2022-12-01T09:39:28;19.00;51.80
21214;DHT22;10764;50.850;2.904;2022-12-01T09:42:10;18.20;51.80
21214;DHT22;10764;50.850;2.904;2022-12-01T09:44:48;20.40;52.30
21214;DHT22;10764;50.850;2.904;2022-12-01T09:47:24;18.50;51.50
21214;DHT22;10764;50.850;2.904;2022-12-01T09:49:59;17.50;51.10
21214;DHT22;10764;50.850;2.904;2022-12-01T09:52:32;15.60;50.30
21214;DHT22;10764;50.850;2.904;2022-12-01T09:55:00;18.90;51.90
21214;DHT22;10764;50.850;2.904;2022-12-01T09:57:34;19.90;52.80
21214;DHT22;10764;50.850;2.904;2022-12-01T10:00:13;17.50;51.30
21214;DHT22;10764;50.850;2.904;2022-12-01T10:06:04;17.50;51.20
21214;DHT22;10764;50.850;2.904;2022-12-01T10:11:41;17.50;51.80
21214;DHT22;10764;50.850;2.904;2022-12-01T10:14:13;18.50;52.40
21214;DHT22;10764;50.850;2.904;2022-12-01T10:20:09;17.50;51.90
21214;DHT22;10764;50.850;2.904;2022-12-01T10:23:07;17.50;52.30
21214;DHT22;10764;50.850;2.904;2022-12-01T10:30:56;17.50;52.40
21214;DHT22;10764;50.850;2.904;2022-12-01T10:33:45;18.10;52.80
21214;DHT22;10764;50.850;2.904;2022-12-01T10:36:16;17.50;52.60
21214;DHT22;10764;50.850;2.904;2022-12-01T10:38:43;19.40;53.80
21214;DHT22;10764;50.850;2.904;2022-12-01T10:41:12;17.50;52.80
21214;DHT22;10764;50.850;2.904;2022-12-01T10:43:43;17.50;52.90
21214;DHT22;10764;50.850;2.904;2022-12-01T10:46:24;19.40;53.50
21214;DHT22;10764;50.850;2.904;2022-12-01T10:48:58;19.40;53.40
21214;DHT22;10764;50.850;2.904;2022-12-01T10:51:26;17.50;52.70
21214;DHT22;10764;50.850;2.904;2022-12-01T10:54:07;17.50;52.50
21214;DHT22;10764;50.850;2.904;2022-12-01T10:56:39;17.50;52.40
21214;DHT22;10764;50.850;2.904;2022-12-01T10:59:23;18.60;53.00
21214;DHT22;10764;50.850;2.904;2022-12-01T11:01:53;18.20;53.00
21214;DHT22;10764;50.850;2.904;2022-12-01T11:04:37;19.10;53.20
21214;DHT22;10764;50.850;2.904;2022-12-01T11:07:21;17.50;52.30
21214;DHT22;10764;50.850;2.904;2022-12-01T11:12:33;17.50;52.20
21214;DHT22;10764;50.850;2.904;2022-12-01T11:15:00;17.50;52.70
21214;DHT22;10764;50.850;2.904;2022-12-01T11:17:32;20.70;54.00
21214;DHT22;10764;50.850;2.904;2022-12-01T11:20:30;18.20;53.00
21214;DHT22;10764;50.850;2.904;2022-12-01T11:23:21;17.50;52.10
21214;DHT22;10764;50.850;2.904;2022-12-01T11:28:34;17.50;52.10
21214;DHT22;10764;50.850;2.904;2022-12-01T11:31:04;17.60;52.50
21214;DHT22;10764;50.850;2.904;2022-12-01T11:33:41;17.50;52.10
21214;DHT22;10764;50.850;2.904;2022-12-01T11:36:09;19.40;53.10
21214;DHT22;10764;50.850;2.904;2022-12-01T11:38:41;17.50;52.30
21214;DHT22;10764;50.850;2.904;2022-12-01T11:41:27;19.80;53.40
21214;DHT22;10764;50.850;2.904;2022-12-01T11:43:56;20.20;53.30
21214;DHT22;10764;50.850;2.904;2022-12-01T11:46:31;19.50;53.20
21214;DHT22;10764;50.850;2.904;2022-12-01T11:48:59;18.20;52.40
21214;DHT22;10764;50.850;2.904;2022-12-01T11:51:31;19.20;53.10
21214;DHT22;10764;50.850;2.904;2022-12-01T11:54:13;17.50;52.30
21214;DHT22;10764;50.850;2.904;2022-12-01T11:56:43;18.90;52.80
21214;DHT22;10764;50.850;2.904;2022-12-01T11:59:14;18.80;52.80
21214;DHT22;10764;50.850;2.904;2022-12-01T12:10:43;17.60;52.50
21214;DHT22;10764;50.850;2.904;2022-12-01T12:16:27;17.70;52.70
21214;DHT22;10764;50.850;2.904;2022-12-01T12:30:45;18.90;54.60
21214;DHT22;10764;50.850;2.904;2022-12-01T12:33:31;18.20;54.40
21214;DHT22;10764;50.850;2.904;2022-12-01T12:52:25;17.60;53.60
21214;DHT22;10764;50.850;2.904;2022-12-01T12:55:01;17.70;53.70
21214;DHT22;10764;50.850;2.904;2022-12-01T12:57:34;21.30;55.40
21214;DHT22;10764;50.850;2.904;2022-12-01T13:00:06;17.70;54.00
21214;DHT22;10764;50.850;2.904;2022-12-01T13:05:15;17.70;53.50
21214;DHT22;10764;50.850;2.904;2022-12-01T13:07:58;17.70;53.80
21214;DHT22;10764;50.850;2.904;2022-12-01T13:10:39;20.10;54.60
21214;DHT22;10764;50.850;2.904;2022-12-01T13:13:31;17.70;53.30
21214;DHT22;10764;50.850;2.904;2022-12-01T13:16:01;17.70;53.20
21214;DHT22;10764;50.850;2.904;2022-12-01T13:21:42;17.70;53.10
21214;DHT22;10764;50.850;2.904;2022-12-01T13:24:22;17.70;53.40
21214;DHT22;10764;50.850;2.904;2022-12-01T13:27:04;19.60;54.20
21214;DHT22;10764;50.850;2.904;2022-12-01T13:29:34;17.70;53.60
21214;DHT22;10764;50.850;2.904;2022-12-01T13:32:27;17.70;53.40
21214;DHT22;10764;50.850;2.904;2022-12-01T13:34:56;17.70;53.10
21214;DHT22;10764;50.850;2.904;2022-12-01T13:37:35;17.70;53.70
21214;DHT22;10764;50.850;2.904;2022-12-01T13:40:08;18.80;54.20
21214;DHT22;10764;50.850;2.904;2022-12-01T13:42:37;17.70;53.70
21214;DHT22;10764;50.850;2.904;2022-12-01T13:45:23;17.80;54.50
21214;DHT22;10764;50.850;2.904;2022-12-01T13:47:53;17.70;53.60
21214;DHT22;10764;50.850;2.904;2022-12-01T13:56:33;17.70;53.30
21214;DHT22;10764;50.850;2.904;2022-12-01T13:58:53;17.80;53.70
21214;DHT22;10764;50.850;2.904;2022-12-01T14:03:58;17.70;53.80
21214;DHT22;10764;50.850;2.904;2022-12-01T14:06:46;17.70;53.20
21214;DHT22;10764;50.850;2.904;2022-12-01T14:09:36;17.70;53.30
21214;DHT22;10764;50.850;2.904;2022-12-01T14:12:21;17.70;53.00
21214;DHT22;10764;50.850;2.904;2022-12-01T14:18:02;17.80;52.90
21214;DHT22;10764;50.850;2.904;2022-12-01T14:20:32;17.80;53.20
21214;DHT22;10764;50.850;2.904;2022-12-01T14:23:19;21.90;54.80
21214;DHT22;10764;50.850;2.904;2022-12-01T14:26:09;17.70;52.70
21214;DHT22;10764;50.850;2.904;2022-12-01T14:34:13;17.80;53.10
21214;DHT22;10764;50.850;2.904;2022-12-01T14:37:06;17.90;53.20
21214;DHT22;10764;50.850;2.904;2022-12-01T14:39:40;17.80;52.30
21214;DHT22;10764;50.850;2.904;2022-12-01T14:45:14;17.80;52.20
21214;DHT22;10764;50.850;2.904;2022-12-01T14:47:51;20.70;53.70
21214;DHT22;10764;50.850;2.904;2022-12-01T14:50:38;17.80;52.30
21214;DHT22;10764;50.850;2.904;2022-12-01T14:53:25;17.80;52.20
21214;DHT22;10764;50.850;2.904;2022-12-01T14:55:59;17.70;51.90
21214;DHT22;10764;50.850;2.904;2022-12-01T14:58:29;19.60;52.80
21214;DHT22;10764;50.850;2.904;2022-12-01T15:01:07;19.30;52.60
21214;DHT22;10764;50.850;2.904;2022-12-01T15:06:03;17.90;52.80
21214;DHT22;10764;50.850;2.904;2022-12-01T15:08:32;17.80;51.80
21214;DHT22;10764;50.850;2.904;2022-12-01T15:11:19;17.80;51.70
21214;DHT22;10764;50.850;2.904;2022-12-01T15:13:52;17.80;51.60
21214;DHT22;10764;50.850;2.904;2022-12-01T15:16:27;17.90;51.60
21214;DHT22;10764;50.850;2.904;2022-12-01T15:18:55;18.40;51.90
21214;DHT22;10764;50.850;2.904;2022-12-01T15:21:27;17.80;52.70
21214;DHT22;10764;50.850;2.904;2022-12-01T15:24:19;17.70;51.50
21214;DHT22;10764;50.850;2.904;2022-12-01T15:26:49;19.80;52.50
21214;DHT22;10764;50.850;2.904;2022-12-01T15:29:23;18.10;51.60
21214;DHT22;10764;50.850;2.904;2022-12-01T15:31:58;17.70;51.30
21214;DHT22;10764;50.850;2.904;2022-12-01T15:34:39;17.70;51.70
21214;DHT22;10764;50.850;2.904;2022-12-01T15:37:17;18.00;51.60
21214;DHT22;10764;50.850;2.904;2022-12-01T15:39:48;17.70;51.40
21214;DHT22;10764;50.850;2.904;2022-12-01T15:42:26;17.70;51.20
21214;DHT22;10764;50.850;2.904;2022-12-01T15:45:01;19.40;52.10
21214;DHT22;10764;50.850;2.904;2022-12-01T15:50:48;17.70;51.40
21214;DHT22;10764;50.850;2.904;2022-12-01T15:53:27;17.70;51.10
21214;DHT22;10764;50.850;2.904;2022-12-01T15:56:00;19.90;52.50
21214;DHT22;10764;50.850;2.904;2022-12-01T15:58:30;17.80;51.20
21214;DHT22;10764;50.850;2.904;2022-12-01T16:03:27;20.40;52.80
21214;DHT22;10764;50.850;2.904;2022-12-01T16:05:54;21.60;53.40
21214;DHT22;10764;50.850;2.904;2022-12-01T16:08:25;17.90;51.20
21214;DHT22;10764;50.850;2.904;2022-12-01T16:11:16;18.30;51.50
21214;DHT22;10764;50.850;2.904;2022-12-01T16:24:27;17.80;51.60
21214;DHT22;10764;50.850;2.904;2022-12-01T16:27:00;17.60;50.60
21214;DHT22;10764;50.850;2.904;2022-12-01T16:29:32;19.20;51.40
21214;DHT22;10764;50.850;2.904;2022-12-01T16:34:49;17.70;50.60
21214;DHT22;10764;50.850;2.904;2022-12-01T16:37:17;18.30;50.90
21214;DHT22;10764;50.850;2.904;2022-12-01T16:39:44;18.90;51.40
21214;DHT22;10764;50.850;2.904;2022-12-01T16:42:14;19.70;51.80
21214;DHT22;10764;50.850;2.904;2022-12-01T16:44:42;17.70;50.80
21214;DHT22;10764;50.850;2.904;2022-12-01T16:47:23;18.60;50.90
21214;DHT22;10764;50.850;2.904;2022-12-01T16:49:51;17.80;51.60
21214;DHT22;10764;50.850;2.904;2022-12-01T16:52:18;18.60;50.80
21214;DHT22;10764;50.850;2.904;2022-12-01T16:55:35;17.70;50.60
21214;DHT22;10764;50.850;2.904;2022-12-01T16:58:03;17.70;50.30
21214;DHT22;10764;50.850;2.904;2022-12-01T17:00:30;17.70;51.00
21214;DHT22;10764;50.850;2.904;2022-12-01T17:02:59;18.10;51.10
21214;DHT22;10764;50.850;2.904;2022-12-01T17:05:26;20.30;51.40
21214;DHT22;10764;50.850;2.904;2022-12-01T17:07:53;19.10;51.50
21214;DHT22;10764;50.850;2.904;2022-12-01T17:10:21;21.50;52.10
21214;DHT22;10764;50.850;2.904;2022-12-01T17:12:49;17.90;50.40
21214;DHT22;10764;50.850;2.904;2022-12-01T17:15:16;16.90;50.60
21214;DHT22;10764;50.850;2.904;2022-12-01T17:17:43;17.70;51.00
21214;DHT22;10764;50.850;2.904;2022-12-01T17:20:10;17.80;51.30
21214;DHT22;10764;50.850;2.904;2022-12-01T17:22:37;17.60;50.90
21214;DHT22;10764;50.850;2.904;2022-12-01T17:25:04;19.80;51.20
21214;DHT22;10764;50.850;2.904;2022-12-01T17:27:32;17.70;50.40
21214;DHT22;10764;50.850;2.904;2022-12-01T17:30:00;17.70;50.10
21214;DHT22;10764;50.850;2.904;2022-12-01T17:32:27;17.70;50.00
21214;DHT22;10764;50.850;2.904;2022-12-01T17:34:54;17.60;50.30
21214;DHT22;10764;50.850;2.904;2022-12-01T17:37:21;18.90;50.70
21214;DHT22;10764;50.850;2.904;2022-12-01T17:39:48;17.70;50.50
21214;DHT22;10764;50.850;2.904;2022-12-01T17:42:16;17.90;50.40
21214;DHT22;10764;50.850;2.904;2022-12-01T17:44:42;17.60;50.70
21214;DHT22;10764;50.850;2.904;2022-12-01T17:47:09;17.70;50.60
21214;DHT22;10764;50.850;2.904;2022-12-01T17:49:38;20.10;51.20
21214;DHT22;10764;50.850;2.904;2022-12-01T17:52:06;18.90;50.40
21214;DHT22;10764;50.850;2.904;2022-12-01T17:54:33;17.60;49.90
21214;DHT22;10764;50.850;2.904;2022-12-01T17:57:00;17.60;50.10
21214;DHT22;10764;50.850;2.904;2022-12-01T17:59:27;18.20;50.10
21214;DHT22;10764;50.850;2.904;2022-12-01T18:01:54;18.10;50.30
21214;DHT22;10764;50.850;2.904;2022-12-01T18:04:21;19.80;50.70
21214;DHT22;10764;50.850;2.904;2022-12-01T18:06:47;20.50;50.80
21214;DHT22;10764;50.850;2.904;2022-12-01T18:09:20;18.80;50.60
21214;DHT22;10764;50.850;2.904;2022-12-01T18:11:48;17.60;50.20
21214;DHT22;10764;50.850;2.904;2022-12-01T18:14:15;20.50;51.40